Aérodrome :
LOGIN :

S'inscrire | Disclaimer

   EN    FR    IT 

 










Légende :    VFR   VFR Marginal   IFR   IFR Intensif   IFR Très Intensif
Visi : 
Plafond : 
>= 8 km
>= 3000ft
5 à 8 km
1000 à 3000 ft
1500m à 5 km
500 à 1000 ft
800 à 1500m
200 à 500 ft
< 800m
< 200 ft
Symboles :   Orages  Brouillard  Fortes neiges  Fortes précipitations  Vent > 20 kt
SIGMETs :   Divers  Orages  Givrage  Turbulence  Onde Orograph.  Cendres Volcan.






- Altitude de l'aérodrome : 392 ft
- Code IATA : CDG


LFPG - Paris-Aeroport Charles De Gaulle

DERNIER METAR :
  • 150700Z 25011KT 9999 FEW020 SCT260 09/05 Q1002 NOSIG

METARs EXPIRÉS :
  • 150630Z 25010KT 9999 FEW021 SCT260 09/07 Q1001 NOSIG
  • 150600Z 24009KT 9999 FEW016 SCT260 09/07 Q1000 NOSIG
  • 150530Z 26015KT 9999 BKN016 BKN053 10/06 Q0999 TEMPO 24015G25KT
  • 150500Z 26014KT 9999 -RA BKN016 BKN053 10/07 Q0999 TEMPO 24015G30KT
  • 150430Z 24021KT 9999 -RA FEW015 FEW016TCU BKN053 10/08 Q0998 TEMPO 25020G35KT
  • 150400Z 24017KT 7000 RA FEW015 FEW016TCU BKN018 10/08 Q0998 TEMPO 20020G35KT 4000 SHRA SCT015TCU BKN020

TAF TAF LFPG
Valide du 15 à 06h jusqu'au 16 à 12h UTC


150500Z 1506/1612 24012KT 9999 SCT040 TX11/1612Z TN08/1508Z
PROB40
TEMPO 1506/1507 25015G25KT
PROB30
TEMPO 1510/1512 22015G25KT 4000 SHRA SCT040TCU
PROB40
TEMPO 1601/1605 BKN008
PROB30
TEMPO 1606/1612 BKN012
ATIS : +33 1 48 62 10 92



MET'MAP, la Météo Aéronautique d'un coup d'oeil ! - Copyright ORBIFLY Décembre 2007 - Disclaimer

ORBIFLY MET'MAP TEAM :

Programmation & Développement : Alexandra Zaïnal
Sur une idée originale de : Baudouin d'Aumeries
Assistance à la programmation : Marc-Olivier Méhu
Soutien technique & logistique : Manuel Goepfert

Contact : metmap@orbifly.com




SOURCES & CREDITS :

   NOAA